createdAt,value
2022-10-22T00:00:17.800Z,100.00
2022-10-22T00:02:44.748Z,100.00
2022-10-22T00:05:11.652Z,100.00
2022-10-22T00:07:38.754Z,100.00
2022-10-22T00:10:07.490Z,100.00
2022-10-22T00:12:35.068Z,100.00
2022-10-22T00:15:02.301Z,100.00
2022-10-22T00:17:29.010Z,100.00
2022-10-22T00:19:55.790Z,100.00
2022-10-22T00:22:22.485Z,100.00
2022-10-22T00:24:49.309Z,100.00
2022-10-22T00:27:16.038Z,100.00
2022-10-22T00:29:42.873Z,100.00
2022-10-22T00:32:09.590Z,100.00
2022-10-22T00:34:36.438Z,100.00
2022-10-22T00:37:03.251Z,100.00
2022-10-22T00:39:30.242Z,100.00
2022-10-22T00:41:58.433Z,100.00
2022-10-22T00:45:01.988Z,100.00
2022-10-22T00:47:33.148Z,100.00
2022-10-22T00:50:01.688Z,100.00
2022-10-22T00:52:29.056Z,100.00
2022-10-22T00:54:57.022Z,100.00
2022-10-22T00:57:24.048Z,100.00
2022-10-22T00:59:50.814Z,100.00
2022-10-22T01:02:18.067Z,100.00
2022-10-22T01:04:45.318Z,100.00
2022-10-22T01:07:20.499Z,100.00
2022-10-22T01:10:14.238Z,100.00
2022-10-22T01:12:41.298Z,100.00
2022-10-22T01:15:49.008Z,100.00
2022-10-22T01:18:38.157Z,100.00
2022-10-22T01:21:27.257Z,100.00
2022-10-22T01:24:11.842Z,100.00
2022-10-22T01:26:57.110Z,100.00
2022-10-22T01:29:37.645Z,100.00
2022-10-22T01:32:13.286Z,100.00
2022-10-22T01:34:43.933Z,100.00
2022-10-22T01:37:14.048Z,100.00
2022-10-22T01:39:43.964Z,100.00
2022-10-22T01:42:12.831Z,100.00
2022-10-22T01:44:40.312Z,100.00
2022-10-22T01:47:27.978Z,100.00
2022-10-22T01:50:03.543Z,100.00
2022-10-22T01:52:58.494Z,100.00
2022-10-22T01:55:38.756Z,100.00
2022-10-22T01:58:11.309Z,100.00
2022-10-22T02:00:44.820Z,100.00
2022-10-22T02:03:22.770Z,100.00
2022-10-22T02:06:05.863Z,100.00
2022-10-22T02:08:35.674Z,100.00
2022-10-22T02:11:04.255Z,100.00
2022-10-22T02:13:37.770Z,100.00
2022-10-22T02:16:08.142Z,100.00
2022-10-22T02:18:38.818Z,100.00
2022-10-22T02:23:35.693Z,100.00
2022-10-22T02:26:34.794Z,100.00
2022-10-22T02:29:12.053Z,100.00
2022-10-22T02:31:43.480Z,100.00
2022-10-22T02:34:16.067Z,100.00
2022-10-22T02:36:48.070Z,100.00
2022-10-22T02:39:19.268Z,100.00
2022-10-22T02:41:46.031Z,100.00
2022-10-22T02:44:12.798Z,100.00
2022-10-22T02:46:40.557Z,100.00
2022-10-22T02:49:07.484Z,100.00
2022-10-22T02:51:34.754Z,100.00
2022-10-22T02:54:01.543Z,100.00
2022-10-22T02:56:28.395Z,100.00
2022-10-22T02:58:55.164Z,100.00
2022-10-22T03:01:22.119Z,100.00
2022-10-22T03:03:49.277Z,100.00
2022-10-22T03:06:16.201Z,100.00
2022-10-22T03:08:43.532Z,100.00
2022-10-22T03:11:10.561Z,100.00
2022-10-22T03:13:37.394Z,100.00
2022-10-22T03:16:04.561Z,100.00
2022-10-22T03:18:31.296Z,100.00
2022-10-22T03:21:19.582Z,100.00
2022-10-22T03:23:46.696Z,100.00
2022-10-22T03:26:14.297Z,100.00
2022-10-22T03:28:42.302Z,100.00
2022-10-22T03:31:09.572Z,100.00
2022-10-22T03:33:36.281Z,100.00
2022-10-22T03:36:03.030Z,100.00
2022-10-22T03:38:30.647Z,100.00
2022-10-22T03:40:58.082Z,100.00
2022-10-22T03:43:24.935Z,100.00
2022-10-22T03:45:52.169Z,100.00
2022-10-22T03:48:27.179Z,100.00
2022-10-22T03:50:54.032Z,100.00
2022-10-22T03:53:21.580Z,100.00
2022-10-22T03:55:48.434Z,100.00
2022-10-22T03:58:15.201Z,100.00
2022-10-22T04:00:42.004Z,100.00
2022-10-22T04:03:08.743Z,100.00
2022-10-22T04:05:35.464Z,100.00
2022-10-22T04:08:02.196Z,99.83
2022-10-22T04:10:29.007Z,99.29
2022-10-22T04:12:55.850Z,99.32
2022-10-22T04:15:22.667Z,99.32
2022-10-22T04:17:49.413Z,97.89
2022-10-22T04:20:16.238Z,97.02
2022-10-22T04:22:42.983Z,97.34
2022-10-22T04:25:09.995Z,97.22
2022-10-22T04:27:37.362Z,97.32
2022-10-22T04:30:06.730Z,97.32
2022-10-22T04:32:33.479Z,97.05
2022-10-22T04:35:00.295Z,96.39
2022-10-22T04:37:27.004Z,96.10
2022-10-22T04:39:53.854Z,95.96
2022-10-22T04:42:20.615Z,96.14
2022-10-22T04:44:47.341Z,95.25
2022-10-22T04:47:14.107Z,94.89
2022-10-22T04:49:41.006Z,95.22
2022-10-22T04:52:07.849Z,94.30
2022-10-22T04:54:34.751Z,94.29
2022-10-22T04:57:01.563Z,93.54
2022-10-22T04:59:28.323Z,94.45
2022-10-22T05:01:55.267Z,94.97
2022-10-22T05:04:22.034Z,94.46
2022-10-22T05:06:48.833Z,94.25
2022-10-22T05:09:18.579Z,94.66
2022-10-22T05:11:48.971Z,94.90
2022-10-22T05:14:24.802Z,94.95
2022-10-22T05:16:52.418Z,95.49
2022-10-22T05:19:24.156Z,95.91
2022-10-22T05:21:52.863Z,96.40
2022-10-22T05:24:19.605Z,96.92
2022-10-22T05:26:46.502Z,97.08
2022-10-22T05:29:13.968Z,97.17
2022-10-22T05:31:41.330Z,96.93
2022-10-22T05:34:08.165Z,96.91
2022-10-22T05:36:35.152Z,96.84
2022-10-22T05:39:02.061Z,96.95
2022-10-22T05:41:29.429Z,97.60
2022-10-22T05:43:58.176Z,97.34
2022-10-22T05:46:27.533Z,97.10
2022-10-22T05:48:57.100Z,97.10
2022-10-22T05:51:24.827Z,96.31
2022-10-22T05:53:57.287Z,96.55
2022-10-22T05:56:25.558Z,96.60
2022-10-22T05:58:52.808Z,96.95
2022-10-22T06:01:24.947Z,96.55
2022-10-22T06:03:56.886Z,96.17
2022-10-22T06:06:37.446Z,95.83
2022-10-22T06:09:21.475Z,95.99
2022-10-22T06:11:48.984Z,95.57
2022-10-22T06:14:17.255Z,95.29
2022-10-22T06:16:44.192Z,95.63
2022-10-22T06:19:16.499Z,95.54
2022-10-22T06:21:44.009Z,95.51
2022-10-22T06:24:12.004Z,95.28
2022-10-22T06:26:39.979Z,95.02
2022-10-22T06:29:07.702Z,94.94
2022-10-22T06:31:37.152Z,95.70
2022-10-22T06:34:10.750Z,95.56
2022-10-22T06:36:38.333Z,95.38
2022-10-22T06:39:05.624Z,94.90
2022-10-22T06:41:32.605Z,94.51
2022-10-22T06:44:00.242Z,93.99
2022-10-22T06:46:27.262Z,94.13
2022-10-22T06:49:02.661Z,95.53
2022-10-22T06:51:29.998Z,95.54
2022-10-22T06:53:58.255Z,95.12
2022-10-22T06:56:28.969Z,94.78
2022-10-22T06:58:57.417Z,94.76
2022-10-22T07:01:28.246Z,94.58
2022-10-22T07:03:55.416Z,94.39
2022-10-22T07:06:23.341Z,95.86
2022-10-22T07:08:50.546Z,95.59
2022-10-22T07:11:23.344Z,94.65
2022-10-22T07:13:51.188Z,94.71
2022-10-22T07:16:18.628Z,94.55
2022-10-22T07:18:46.846Z,94.79
2022-10-22T07:21:16.274Z,94.79
2022-10-22T07:23:43.228Z,95.05
2022-10-22T07:26:12.719Z,94.78
2022-10-22T07:28:41.217Z,94.34
2022-10-22T07:31:10.223Z,94.54
2022-10-22T07:33:37.937Z,94.75
2022-10-22T07:36:07.721Z,94.90
2022-10-22T07:38:36.436Z,95.71
2022-10-22T07:41:03.946Z,95.65
2022-10-22T07:43:30.739Z,94.90
2022-10-22T07:45:57.665Z,94.35
2022-10-22T07:48:30.434Z,94.30
2022-10-22T07:50:58.578Z,93.94
2022-10-22T07:53:25.619Z,94.24
2022-10-22T07:55:53.091Z,94.81
2022-10-22T07:58:27.171Z,95.07
2022-10-22T08:01:00.966Z,94.41
2022-10-22T08:03:28.581Z,94.16
2022-10-22T08:05:56.177Z,93.57
2022-10-22T08:08:28.345Z,93.08
2022-10-22T08:10:59.581Z,93.03
2022-10-22T08:13:27.736Z,93.55
2022-10-22T08:15:57.381Z,92.88
2022-10-22T08:18:31.221Z,92.64
2022-10-22T08:20:58.306Z,92.70
2022-10-22T08:23:27.599Z,92.67
2022-10-22T08:25:56.070Z,92.59
2022-10-22T08:28:29.753Z,92.96
2022-10-22T08:30:57.666Z,93.38
2022-10-22T08:33:25.717Z,92.35
2022-10-22T08:35:54.673Z,91.77
2022-10-22T08:38:26.470Z,91.40
2022-10-22T08:40:57.475Z,91.61
2022-10-22T08:43:49.023Z,91.28
2022-10-22T08:46:34.289Z,91.88
2022-10-22T08:49:05.649Z,91.77
2022-10-22T08:51:40.765Z,91.20
2022-10-22T08:54:22.326Z,90.90
2022-10-22T08:57:09.975Z,90.77
2022-10-22T08:59:59.865Z,90.86
2022-10-22T09:02:29.319Z,91.06
2022-10-22T09:05:25.438Z,91.44
2022-10-22T09:07:53.289Z,91.34
2022-10-22T09:10:36.045Z,90.66
2022-10-22T09:13:03.060Z,90.50
2022-10-22T09:15:31.647Z,90.56
2022-10-22T09:18:31.654Z,90.98
2022-10-22T09:21:27.989Z,91.22
2022-10-22T09:23:57.737Z,90.93
2022-10-22T09:26:26.069Z,91.03
2022-10-22T09:28:53.318Z,91.16
2022-10-22T09:31:20.173Z,91.34
2022-10-22T09:33:50.401Z,91.78
2022-10-22T09:36:18.753Z,91.55
2022-10-22T09:38:49.387Z,91.55
2022-10-22T09:41:17.425Z,91.26
2022-10-22T09:43:47.689Z,91.11
2022-10-22T09:46:26.606Z,91.21
2022-10-22T09:48:56.118Z,90.53
2022-10-22T09:51:36.515Z,90.40
2022-10-22T09:54:19.069Z,91.32
2022-10-22T09:57:18.188Z,90.85
2022-10-22T09:59:49.180Z,90.54
2022-10-22T10:02:37.542Z,89.97
2022-10-22T10:05:06.738Z,88.84
2022-10-22T10:07:36.123Z,87.96
2022-10-22T10:10:12.458Z,88.09
2022-10-22T10:12:48.997Z,88.28
2022-10-22T10:15:23.183Z,88.10
2022-10-22T10:18:04.303Z,87.87
2022-10-22T10:20:43.340Z,87.49
2022-10-22T10:23:16.001Z,86.74
2022-10-22T10:26:20.638Z,86.85
2022-10-22T10:29:05.900Z,87.22
2022-10-22T10:31:49.884Z,86.91
2022-10-22T10:34:19.398Z,87.63
2022-10-22T10:37:12.385Z,86.99
2022-10-22T10:39:45.125Z,86.66
2022-10-22T10:42:20.274Z,85.46
2022-10-22T10:45:23.368Z,85.72
2022-10-22T10:48:05.249Z,85.50
2022-10-22T10:50:35.038Z,85.32
2022-10-22T10:53:20.062Z,84.54
2022-10-22T10:56:05.033Z,84.18
2022-10-22T10:58:40.005Z,84.13
2022-10-22T11:01:23.302Z,82.85
2022-10-22T11:04:14.810Z,83.42
2022-10-22T11:06:45.034Z,82.52
2022-10-22T11:09:37.791Z,81.86
2022-10-22T11:12:15.255Z,81.21
2022-10-22T11:14:57.364Z,81.62
2022-10-22T11:17:28.651Z,81.92
2022-10-22T11:20:04.621Z,80.73
2022-10-22T11:23:13.071Z,80.64
2022-10-22T11:25:59.619Z,81.49
2022-10-22T11:28:38.126Z,81.68
2022-10-22T11:31:14.019Z,80.78
2022-10-22T11:34:04.995Z,81.39
2022-10-22T11:36:38.376Z,82.30
2022-10-22T11:39:05.587Z,80.57
2022-10-22T11:41:34.634Z,79.46
2022-10-22T11:44:11.973Z,78.71
2022-10-22T11:46:44.601Z,78.69
2022-10-22T11:49:14.389Z,78.69
2022-10-22T11:51:43.242Z,78.96
2022-10-22T11:54:30.090Z,78.51
2022-10-22T11:57:15.087Z,79.46
2022-10-22T11:59:50.009Z,78.75
2022-10-22T12:02:29.068Z,79.52
2022-10-22T12:05:16.684Z,79.88
2022-10-22T12:08:03.787Z,80.23
2022-10-22T12:10:57.666Z,79.74
2022-10-22T12:13:30.942Z,79.97
2022-10-22T12:16:03.946Z,79.45
2022-10-22T12:18:49.831Z,79.06
2022-10-22T12:21:17.906Z,78.53
2022-10-22T12:23:46.891Z,77.71
2022-10-22T12:29:20.252Z,79.62
2022-10-22T12:31:47.917Z,79.99
2022-10-22T12:34:19.076Z,78.87
2022-10-22T12:36:49.019Z,78.72
2022-10-22T12:39:19.120Z,79.98
2022-10-22T12:41:46.257Z,78.91
2022-10-22T12:44:16.983Z,78.45
2022-10-22T12:49:29.070Z,78.49
2022-10-22T12:51:55.983Z,77.80
2022-10-22T12:54:27.211Z,77.64
2022-10-22T12:56:59.541Z,76.89
2022-10-22T12:59:42.819Z,76.74
2022-10-22T13:02:26.299Z,76.44
2022-10-22T13:05:11.874Z,76.59
2022-10-22T13:07:41.568Z,75.25
2022-10-22T13:10:18.973Z,75.15
2022-10-22T13:12:50.614Z,75.69
2022-10-22T13:15:32.281Z,75.83
2022-10-22T13:18:03.848Z,76.13
2022-10-22T13:20:30.857Z,77.10
2022-10-22T13:23:03.469Z,77.11
2022-10-22T13:25:35.867Z,77.33
2022-10-22T13:28:31.295Z,76.84
2022-10-22T13:31:09.739Z,76.70
2022-10-22T13:33:40.429Z,76.23
2022-10-22T13:36:09.241Z,80.10
2022-10-22T13:38:36.520Z,78.94
2022-10-22T13:41:05.032Z,81.09
2022-10-22T13:43:31.896Z,78.87
2022-10-22T13:46:00.176Z,76.90
2022-10-22T13:48:32.407Z,77.28
2022-10-22T13:50:59.440Z,77.31
2022-10-22T13:53:29.464Z,77.21
2022-10-22T13:55:56.543Z,77.26
2022-10-22T13:58:36.726Z,77.68
2022-10-22T14:01:08.890Z,78.57
2022-10-22T14:03:38.210Z,78.90
2022-10-22T14:06:12.334Z,79.15
2022-10-22T14:08:39.227Z,80.20
2022-10-22T14:11:06.182Z,80.05
2022-10-22T14:13:32.933Z,80.04
2022-10-22T14:15:59.697Z,80.96
2022-10-22T14:18:33.340Z,81.19
2022-10-22T14:21:05.433Z,80.88
2022-10-22T14:23:32.794Z,81.76
2022-10-22T14:26:00.554Z,81.79
2022-10-22T14:28:34.165Z,81.96
2022-10-22T14:31:11.003Z,82.49
2022-10-22T14:33:38.030Z,82.92
2022-10-22T14:36:05.025Z,83.62
2022-10-22T14:38:37.433Z,84.38
2022-10-22T14:41:14.974Z,84.02
2022-10-22T14:43:41.706Z,84.50
2022-10-22T14:46:11.167Z,84.76
2022-10-22T14:48:37.937Z,85.04
2022-10-22T14:51:04.887Z,85.52
2022-10-22T14:53:31.638Z,85.58
2022-10-22T14:55:59.826Z,84.92
2022-10-22T14:58:33.594Z,84.44
2022-10-22T15:01:02.572Z,84.72
2022-10-22T15:03:29.395Z,84.38
2022-10-22T15:05:56.246Z,84.50
2022-10-22T15:08:31.328Z,86.96
2022-10-22T15:11:04.110Z,88.42
2022-10-22T15:13:30.795Z,87.52
2022-10-22T15:15:58.405Z,84.83
2022-10-22T15:18:37.652Z,84.50
2022-10-22T15:21:10.209Z,83.68
2022-10-22T15:23:39.519Z,82.68
2022-10-22T15:26:10.323Z,82.29
2022-10-22T15:28:38.949Z,82.82
2022-10-22T15:31:06.519Z,81.94
2022-10-22T15:33:33.669Z,81.51
2022-10-22T15:36:16.859Z,82.03
2022-10-22T15:38:43.696Z,81.52
2022-10-22T15:41:13.662Z,81.92
2022-10-22T15:43:40.646Z,81.72
2022-10-22T15:46:18.918Z,81.84
2022-10-22T15:48:46.342Z,82.54
2022-10-22T15:51:17.453Z,82.80
2022-10-22T15:53:45.090Z,82.73
2022-10-22T15:56:12.252Z,82.81
2022-10-22T15:58:39.018Z,83.17
2022-10-22T16:01:10.779Z,83.89
2022-10-22T16:03:38.027Z,83.61
2022-10-22T16:06:06.817Z,82.69
2022-10-22T16:08:34.043Z,83.22
2022-10-22T16:11:00.934Z,83.11
2022-10-22T16:13:28.097Z,83.46
2022-10-22T16:15:54.850Z,83.06
2022-10-22T16:18:30.074Z,82.69
2022-10-22T16:21:00.313Z,82.44
2022-10-22T16:23:27.100Z,82.71
2022-10-22T16:25:54.595Z,82.82
2022-10-22T16:28:23.080Z,83.66
2022-10-22T16:30:49.935Z,83.96
2022-10-22T16:33:16.780Z,84.03
2022-10-22T16:35:43.688Z,84.55
2022-10-22T16:38:11.273Z,84.71
2022-10-22T16:40:38.446Z,85.22
2022-10-22T16:43:05.532Z,85.35
2022-10-22T16:45:32.370Z,85.25
2022-10-22T16:47:59.101Z,85.29
2022-10-22T16:50:26.156Z,85.72
2022-10-22T16:52:52.944Z,87.12
2022-10-22T16:55:19.884Z,87.64
2022-10-22T16:57:53.654Z,88.60
2022-10-22T17:00:21.090Z,88.24
2022-10-22T17:02:54.614Z,87.83
2022-10-22T17:05:22.051Z,87.70
2022-10-22T17:07:50.394Z,88.44
2022-10-22T17:10:19.843Z,88.05
2022-10-22T17:12:47.756Z,87.64
2022-10-22T17:15:15.383Z,88.06
2022-10-22T17:17:42.165Z,88.08
2022-10-22T17:20:09.140Z,88.08
2022-10-22T17:22:35.981Z,87.96
2022-10-22T17:25:32.945Z,88.33
2022-10-22T17:27:59.754Z,89.00
2022-10-22T17:30:27.415Z,89.79
2022-10-22T17:32:54.981Z,89.78
2022-10-22T17:35:21.902Z,89.83
2022-10-22T17:37:48.705Z,89.55
2022-10-22T17:40:15.920Z,89.60
2022-10-22T17:42:49.589Z,89.76
2022-10-22T17:45:16.908Z,89.56
2022-10-22T17:47:44.014Z,88.63
2022-10-22T17:50:11.473Z,88.84
2022-10-22T17:52:38.449Z,89.03
2022-10-22T17:55:05.629Z,89.26
2022-10-22T17:57:32.527Z,89.84
2022-10-22T17:59:59.364Z,89.53
2022-10-22T18:02:26.432Z,90.12
2022-10-22T18:04:53.185Z,90.25
2022-10-22T18:07:21.059Z,90.00
2022-10-22T18:09:48.272Z,90.02
2022-10-22T18:12:18.162Z,90.26
2022-10-22T18:14:47.179Z,89.71
2022-10-22T18:20:02.585Z,90.49
2022-10-22T18:22:29.370Z,90.54
2022-10-22T18:24:56.466Z,90.49
2022-10-22T18:27:23.292Z,90.59
2022-10-22T18:29:50.816Z,90.87
2022-10-22T18:32:17.872Z,91.02
2022-10-22T18:34:44.671Z,91.22
2022-10-22T18:37:12.467Z,91.41
2022-10-22T18:39:39.655Z,91.58
2022-10-22T18:42:07.383Z,91.26
2022-10-22T18:44:35.373Z,91.26
2022-10-22T18:47:02.283Z,91.69
2022-10-22T18:49:29.253Z,91.87
2022-10-22T18:51:56.234Z,91.78
2022-10-22T18:54:24.458Z,91.68
2022-10-22T18:56:53.316Z,92.00
2022-10-22T18:59:23.641Z,91.87
2022-10-22T19:01:52.930Z,92.06
2022-10-22T19:04:20.225Z,92.25
2022-10-22T19:06:47.460Z,92.02
2022-10-22T19:09:15.824Z,92.28
2022-10-22T19:11:44.821Z,92.18
2022-10-22T19:14:13.645Z,92.05
2022-10-22T19:16:40.599Z,92.33
2022-10-22T19:19:08.524Z,92.95
2022-10-22T19:21:37.431Z,92.97
2022-10-22T19:24:04.398Z,92.62
2022-10-22T19:26:31.960Z,92.47
2022-10-22T19:28:59.795Z,92.48
2022-10-22T19:31:28.624Z,93.32
2022-10-22T19:33:55.883Z,93.56
2022-10-22T19:36:29.030Z,92.91
2022-10-22T19:38:57.652Z,93.08
2022-10-22T19:41:26.969Z,92.70
2022-10-22T19:43:55.639Z,92.75
2022-10-22T19:46:23.543Z,92.98
2022-10-22T19:48:51.608Z,93.35
2022-10-22T19:51:24.296Z,93.18
2022-10-22T19:53:56.596Z,93.37
2022-10-22T19:56:23.480Z,93.41
2022-10-22T19:58:53.911Z,93.72
2022-10-22T20:01:21.120Z,94.04
2022-10-22T20:03:53.424Z,93.92
2022-10-22T20:06:20.697Z,93.63
2022-10-22T20:08:48.374Z,93.36
2022-10-22T20:11:22.980Z,93.43
2022-10-22T20:13:52.242Z,93.93
2022-10-22T20:16:23.296Z,93.53
2022-10-22T20:18:50.676Z,93.41
2022-10-22T20:21:19.526Z,93.50
2022-10-22T20:23:47.497Z,93.57
2022-10-22T20:26:14.421Z,93.54
2022-10-22T20:28:41.277Z,93.90
2022-10-22T20:31:11.311Z,93.50
2022-10-22T20:33:38.432Z,93.59
2022-10-22T20:36:08.639Z,93.36
2022-10-22T20:41:23.416Z,93.71
2022-10-22T20:43:51.801Z,94.23
2022-10-22T20:46:23.176Z,93.71
2022-10-22T20:48:55.437Z,93.81
2022-10-22T20:51:22.661Z,93.73
2022-10-22T20:53:49.396Z,93.71
2022-10-22T20:56:17.023Z,93.84
2022-10-22T20:58:51.717Z,94.15
2022-10-22T21:01:24.321Z,94.31
2022-10-22T21:03:51.862Z,94.27
2022-10-22T21:06:23.298Z,94.39
2022-10-22T21:08:51.326Z,94.30
2022-10-22T21:11:20.132Z,94.41
2022-10-22T21:13:47.196Z,94.76
2022-10-22T21:16:15.491Z,94.37
2022-10-22T21:18:42.204Z,93.98
2022-10-22T21:21:09.362Z,93.62
2022-10-22T21:23:37.078Z,93.84
2022-10-22T21:26:04.950Z,94.00
2022-10-22T21:28:35.619Z,94.24
2022-10-22T21:31:08.422Z,94.31
2022-10-22T21:33:39.393Z,94.30
2022-10-22T21:36:07.414Z,94.35
2022-10-22T21:38:34.955Z,94.45
2022-10-22T21:41:10.083Z,94.49
2022-10-22T21:43:37.685Z,94.39
2022-10-22T21:46:16.253Z,94.59
2022-10-22T21:48:43.835Z,94.52
2022-10-22T21:51:17.079Z,94.75
2022-10-22T21:53:44.407Z,94.54
2022-10-22T21:56:19.443Z,94.56
2022-10-22T21:58:46.952Z,94.71
2022-10-22T22:01:21.275Z,94.49
2022-10-22T22:03:49.587Z,94.40
2022-10-22T22:06:21.281Z,94.68
2022-10-22T22:08:50.130Z,94.62
2022-10-22T22:11:22.894Z,94.65
2022-10-22T22:13:51.429Z,95.03
2022-10-22T22:16:25.428Z,95.28
2022-10-22T22:18:55.249Z,95.31
2022-10-22T22:21:22.203Z,95.49
2022-10-22T22:23:50.709Z,95.42
2022-10-22T22:26:26.733Z,94.81
2022-10-22T22:28:58.575Z,95.36
2022-10-22T22:31:28.301Z,94.99
2022-10-22T22:33:59.946Z,94.74
2022-10-22T22:36:26.778Z,94.78
2022-10-22T22:38:57.118Z,94.91
2022-10-22T22:41:24.158Z,94.97
2022-10-22T22:43:50.999Z,95.22
2022-10-22T22:46:17.982Z,95.20
2022-10-22T22:48:47.307Z,95.29
2022-10-22T22:51:14.179Z,95.07
2022-10-22T22:53:40.947Z,95.01
2022-10-22T22:56:12.003Z,95.36
2022-10-22T22:58:42.802Z,95.52
2022-10-22T23:01:14.586Z,95.39
2022-10-22T23:03:42.630Z,95.68
2022-10-22T23:06:10.081Z,95.57
2022-10-22T23:08:37.112Z,95.62
2022-10-22T23:11:06.786Z,95.59
2022-10-22T23:13:34.607Z,95.65
2022-10-22T23:16:06.448Z,95.63
2022-10-22T23:18:33.302Z,95.44
2022-10-22T23:21:03.927Z,95.99
2022-10-22T23:23:32.815Z,95.83
2022-10-22T23:26:00.236Z,95.84
2022-10-22T23:28:29.929Z,95.62
2022-10-22T23:30:56.657Z,95.42
2022-10-22T23:33:23.373Z,95.72
2022-10-22T23:35:50.105Z,95.51
2022-10-22T23:38:24.110Z,95.04
2022-10-22T23:40:57.255Z,95.15
2022-10-22T23:43:25.432Z,95.21
2022-10-22T23:45:53.444Z,95.13
2022-10-22T23:48:27.483Z,95.21
2022-10-22T23:50:54.249Z,95.34
2022-10-22T23:53:20.971Z,95.65
2022-10-22T23:55:47.846Z,95.06
2022-10-22T23:58:14.608Z,95.15
